Time;durP1;ratioP1;P1;durP2;ratioP2;P2;SDS_P1;SDS_P2;PMS_P1;PMS_P2;Temp;Humidity;BMP_temperature;BMP_pressure;BME280_temperature;BME280_humidity;BME280_pressure;Samples;Min_cycle;Max_cycle;Signal;HPM_P1;HPM_P2
2023/05/29 00:02:17;;;;;;;6.80;4.13;;;;;;;7.89;84.64;97771.00;6242355;28;20273;-87
2023/05/29 00:05:20;;;;;;;5.47;3.47;;;;;;;7.61;85.01;97738.88;6215856;28;20935;-87
2023/05/29 00:08:22;;;;;;;5.57;3.50;;;;;;;8.31;85.19;97863.97;6210408;28;20251;-86
2023/05/29 00:11:25;;;;;;;8.03;4.10;;;;;;;6.74;85.56;97617.09;6198460;28;20240;-87
2023/05/29 00:14:27;;;;;;;6.37;3.60;;;;;;;7.68;85.47;97753.66;6196165;28;20231;-87
2023/05/29 00:17:33;;;;;;;8.67;4.20;;;;;;;7.58;86.12;97773.78;6202207;28;20376;-87
2023/05/29 00:20:35;;;;;;;6.47;3.33;;;;;;;8.16;86.21;97848.41;6215000;28;20867;-87
2023/05/29 00:23:38;;;;;;;4.57;3.13;;;;;;;8.17;86.79;97854.53;6213188;28;20231;-86
2023/05/29 00:26:41;;;;;;;4.40;3.57;;;;;;;7.51;87.19;97776.50;6210743;28;20235;-87
2023/05/29 00:29:43;;;;;;;5.30;3.27;;;;;;;7.69;87.07;97808.34;6178032;28;20369;-86
2023/05/29 00:32:46;;;;;;;5.83;3.60;;;;;;;6.75;86.82;97654.94;6198682;28;20283;-86
2023/05/29 00:35:49;;;;;;;6.77;3.67;;;;;;;6.26;87.11;97609.78;6200774;28;20582;-86
2023/05/29 00:38:51;;;;;;;5.83;3.90;;;;;;;7.99;87.77;97856.16;6197883;28;20235;-86
2023/05/29 00:41:53;;;;;;;6.47;3.60;;;;;;;7.59;87.68;97807.22;6193596;28;20229;-86
2023/05/29 00:44:56;;;;;;;4.93;3.80;;;;;;;7.37;87.61;97775.00;6214320;28;20235;-86
2023/05/29 00:47:59;;;;;;;4.23;3.80;;;;;;;6.03;87.69;97556.66;6211515;28;20244;-86
2023/05/29 00:51:01;;;;;;;5.03;3.73;;;;;;;7.90;88.36;97864.63;6215514;28;20738;-87
2023/05/29 00:54:07;;;;;;;6.67;4.80;;;;;;;6.91;88.04;97699.44;6178328;28;20702;-87
2023/05/29 00:57:11;;;;;;;8.43;4.30;;;;;;;6.81;87.72;97680.59;6197150;28;20600;-86
2023/05/29 01:00:15;;;;;;;9.43;4.00;;;;;;;6.88;87.42;97671.53;6211099;28;20553;-86
2023/05/29 01:03:20;;;;;;;4.73;3.37;;;;;;;7.30;87.03;97759.19;6210756;28;20245;-86
2023/05/29 01:06:23;;;;;;;5.00;3.23;;;;;;;7.23;87.59;97743.31;6191164;28;20231;-87
2023/05/29 01:09:25;;;;;;;5.23;3.10;;;;;;;6.20;87.38;97616.72;6199520;28;20259;-86
2023/05/29 01:12:47;;;;;;;6.20;3.50;;;;;;;7.11;87.59;97733.69;6229045;28;20223;-86
2023/05/29 01:16:08;;;;;;;3.57;3.00;;;;;;;7.84;87.41;97841.66;6190796;28;20232;-87
2023/05/29 01:19:32;;;;;;;5.77;3.50;;;;;;;6.66;87.38;97659.75;6212337;28;20306;-86
2023/05/29 01:23:01;;;;;;;6.83;3.40;;;;;;;7.85;87.65;97840.59;6209659;28;20228;-86
2023/05/29 01:26:42;;;;;;;5.07;3.07;;;;;;;7.82;87.20;97849.00;6125701;28;20268;-87
2023/05/29 01:29:47;;;;;;;5.53;3.07;;;;;;;7.37;87.22;97788.25;6127369;28;20336;-87
2023/05/29 01:32:51;;;;;;;3.63;3.00;;;;;;;7.39;87.44;97821.47;6140801;28;20437;-87
2023/05/29 01:35:53;;;;;;;4.27;2.90;;;;;;;5.84;87.19;97534.59;6138499;28;20234;-86
2023/05/29 01:38:58;;;;;;;4.80;3.50;;;;;;;6.57;87.26;97655.75;6137191;28;20230;-87
2023/05/29 01:42:01;;;;;;;5.67;3.53;;;;;;;6.74;87.27;97691.22;6114138;28;20266;-86
2023/05/29 01:45:06;;;;;;;4.17;3.27;;;;;;;7.74;86.83;97836.84;6113831;28;20234;-86
2023/05/29 01:48:08;;;;;;;5.73;3.70;;;;;;;6.95;87.24;97743.81;6112410;28;20223;-88
2023/05/29 01:51:12;;;;;;;8.37;4.20;;;;;;;6.29;87.60;97653.50;6141691;28;20238;-87
2023/05/29 01:54:15;;;;;;;4.30;3.43;;;;;;;6.73;87.94;97734.59;6119702;28;20206;-87
2023/05/29 01:57:18;;;;;;;6.93;3.27;;;;;;;6.86;87.67;97754.88;6116038;28;20837;-89
2023/05/29 02:00:21;;;;;;;5.07;3.27;;;;;;;6.69;88.46;97733.41;6113645;28;20312;-86
2023/05/29 02:03:24;;;;;;;7.10;3.57;;;;;;;7.00;88.49;97801.41;6174867;28;20306;-88
2023/05/29 02:06:27;;;;;;;5.07;3.70;;;;;;;6.97;88.80;97789.41;6201574;28;20287;-89
2023/05/29 02:09:30;;;;;;;7.63;3.70;;;;;;;6.67;89.16;97749.50;6213266;28;20292;-86
2023/05/29 02:12:33;;;;;;;7.13;3.30;;;;;;;6.81;88.89;97760.81;6228772;28;20235;-86
2023/05/29 02:15:35;;;;;;;5.07;3.57;;;;;;;5.35;88.41;97541.44;6224399;28;20632;-86
2023/05/29 02:18:37;;;;;;;3.97;3.03;;;;;;;6.16;88.77;97665.00;6208671;28;20228;-86
2023/05/29 02:21:41;;;;;;;5.40;3.23;;;;;;;7.02;89.05;97780.00;6191979;28;20364;-86
2023/05/29 02:24:43;;;;;;;7.87;3.70;;;;;;;5.97;88.89;97628.94;6229927;28;20234;-86
2023/05/29 02:27:45;;;;;;;6.60;3.60;;;;;;;6.21;89.42;97681.03;6214426;28;20231;-86
2023/05/29 02:30:48;;;;;;;5.37;3.80;;;;;;;7.23;89.76;97841.34;6227646;28;20231;-86
2023/05/29 02:33:50;;;;;;;8.07;3.60;;;;;;;6.42;89.48;97724.84;6213773;28;20231;-86
2023/05/29 02:36:52;;;;;;;4.77;3.93;;;;;;;7.16;90.05;97821.25;6230253;28;20322;-86
2023/05/29 02:39:55;;;;;;;5.03;3.37;;;;;;;6.07;89.83;97659.16;6215701;28;20236;-86
2023/05/29 02:42:57;;;;;;;4.43;3.10;;;;;;;6.07;89.52;97667.09;6217906;28;20715;-86
2023/05/29 02:46:00;;;;;;;4.93;3.17;;;;;;;6.65;89.66;97741.00;6226508;28;20245;-86
2023/05/29 02:49:02;;;;;;;4.43;3.70;;;;;;;6.78;90.01;97750.66;6216342;28;20259;-86
2023/05/29 02:52:05;;;;;;;5.50;3.30;;;;;;;6.72;90.34;97756.81;6218111;28;20240;-85
2023/05/29 02:55:08;;;;;;;7.47;3.60;;;;;;;6.29;90.31;97712.50;6215433;28;20244;-86
2023/05/29 02:58:11;;;;;;;5.77;3.73;;;;;;;7.03;90.16;97826.66;6221985;28;20232;-86
2023/05/29 03:01:13;;;;;;;4.77;3.67;;;;;;;6.09;90.43;97685.38;6229974;28;20236;-89
2023/05/29 03:04:17;;;;;;;5.10;3.03;;;;;;;6.49;90.43;97746.78;6210886;28;20999;-86
2023/05/29 03:07:20;;;;;;;9.30;3.60;;;;;;;6.00;90.21;97660.22;6217190;28;20447;-86
2023/05/29 03:10:22;;;;;;;4.63;3.13;;;;;;;6.96;90.28;97819.56;6218298;28;20240;-86
2023/05/29 03:13:25;;;;;;;5.00;3.33;;;;;;;6.73;90.83;97774.31;6216334;28;20230;-85
2023/05/29 03:16:35;;;;;;;8.37;3.07;;;;;;;6.32;90.45;97716.59;6217632;28;20242;-86
2023/05/29 03:19:38;;;;;;;6.47;3.73;;;;;;;4.67;90.48;97468.03;6213828;28;20801;-86
2023/05/29 03:22:41;;;;;;;4.80;3.50;;;;;;;6.29;91.06;97694.00;6217003;28;20228;-86
2023/05/29 03:25:44;;;;;;;6.10;3.60;;;;;;;5.11;90.53;97512.09;6210796;28;20236;-86
2023/05/29 03:28:47;;;;;;;5.40;3.67;;;;;;;6.00;90.57;97653.09;6227748;28;20708;-86
2023/05/29 03:31:50;;;;;;;6.73;3.70;;;;;;;5.77;90.48;97629.00;6233380;28;20352;-86
2023/05/29 03:34:58;;;;;;;3.13;2.63;;;;;;;6.31;90.55;97696.44;6196275;28;20595;-86
2023/05/29 03:38:01;;;;;;;5.80;3.53;;;;;;;5.93;90.64;97636.47;6215320;28;20243;-86
2023/05/29 03:41:04;;;;;;;6.53;3.93;;;;;;;7.05;90.65;97811.38;6227246;28;20701;-86
2023/05/29 03:44:09;;;;;;;5.50;3.53;;;;;;;5.16;90.55;97554.50;6214411;28;20290;-87
2023/05/29 03:47:12;;;;;;;5.13;3.50;;;;;;;5.59;90.42;97598.81;6229202;28;20241;-88
2023/05/29 03:50:15;;;;;;;6.27;2.83;;;;;;;6.00;90.52;97661.00;6249597;28;20247;-87
2023/05/29 03:53:19;;;;;;;4.17;3.33;;;;;;;6.49;90.88;97738.84;6228151;28;20306;-86
2023/05/29 03:56:21;;;;;;;3.63;2.80;;;;;;;5.07;90.71;97496.88;6210412;28;20239;-86
2023/05/29 03:59:24;;;;;;;6.30;3.17;;;;;;;6.74;90.90;97797.09;6224340;28;21468;-86
2023/05/29 04:02:27;;;;;;;4.70;3.17;;;;;;;7.18;90.96;97835.91;6231326;28;20220;-87
2023/05/29 04:05:29;;;;;;;4.53;3.23;;;;;;;6.70;91.01;97753.59;6228377;28;20239;-87
2023/05/29 04:08:32;;;;;;;5.70;3.37;;;;;;;7.20;91.22;97843.66;6216629;28;20239;-85
2023/05/29 04:11:34;;;;;;;6.03;3.40;;;;;;;7.16;91.58;97837.16;6207867;28;20216;-86
2023/05/29 04:14:36;;;;;;;8.00;3.57;;;;;;;6.45;91.24;97745.56;6209963;28;20224;-86
2023/05/29 04:17:39;;;;;;;4.10;3.20;;;;;;;7.13;91.70;97826.97;6202205;28;20242;-86
2023/05/29 04:20:42;;;;;;;6.77;3.53;;;;;;;6.87;92.15;97788.28;6198873;28;20232;-86
2023/05/29 04:23:44;;;;;;;5.93;3.07;;;;;;;6.54;91.92;97738.19;6211329;28;20223;-86
2023/05/29 04:26:46;;;;;;;4.10;3.47;;;;;;;7.35;92.05;97841.47;6216284;28;20235;-85
2023/05/29 04:29:49;;;;;;;6.60;3.87;;;;;;;6.71;92.52;97768.44;6212880;28;20227;-86
2023/05/29 04:32:52;;;;;;;5.80;3.83;;;;;;;7.22;92.89;97809.78;6198782;28;20247;-86
2023/05/29 04:35:56;;;;;;;4.33;3.40;;;;;;;7.57;92.65;97872.88;6214403;28;20235;-86
2023/05/29 04:39:00;;;;;;;5.00;3.80;;;;;;;7.62;92.59;97851.84;6211646;28;20323;-86
2023/05/29 04:42:04;;;;;;;7.07;3.67;;;;;;;7.68;92.50;97854.41;6212386;28;20236;-86
2023/05/29 04:45:07;;;;;;;5.30;4.10;;;;;;;6.98;92.45;97750.47;6185182;28;20250;-86
2023/05/29 04:48:11;;;;;;;5.70;3.90;;;;;;;7.19;92.28;97763.34;6197420;28;20233;-86
2023/05/29 04:51:13;;;;;;;7.50;4.40;;;;;;;6.87;93.05;97704.34;6212754;28;20204;-86
2023/05/29 04:54:16;;;;;;;6.33;4.13;;;;;;;7.68;93.02;97838.50;6190630;28;20315;-86
2023/05/29 04:57:19;;;;;;;6.93;4.00;;;;;;;7.70;93.67;97812.59;6173404;28;20235;-86
2023/05/29 05:00:23;;;;;;;6.50;3.67;;;;;;;6.70;93.10;97647.69;6212573;28;20243;-86
2023/05/29 05:03:25;;;;;;;4.50;3.10;;;;;;;7.57;92.76;97803.97;6206675;28;20238;-86
2023/05/29 05:06:28;;;;;;;6.73;3.30;;;;;;;6.26;92.46;97538.38;6209467;28;20266;-86
2023/05/29 05:09:31;;;;;;;6.37;3.50;;;;;;;8.19;92.75;97829.41;6187445;28;20652;-86
2023/05/29 05:12:37;;;;;;;6.37;3.60;;;;;;;8.28;92.75;97832.56;6219885;28;20224;-86
2023/05/29 05:15:39;;;;;;;5.00;3.70;;;;;;;6.88;93.04;97604.53;6228614;28;20225;-86
2023/05/29 05:18:43;;;;;;;4.33;3.37;;;;;;;8.62;92.92;97838.28;6229486;28;20334;-86
2023/05/29 05:21:46;;;;;;;7.47;3.93;;;;;;;8.79;92.81;97861.31;6225777;28;20239;-85
2023/05/29 05:24:49;;;;;;;5.07;4.07;;;;;;;8.48;92.89;97780.06;6212485;28;20232;-85
2023/05/29 05:27:52;;;;;;;4.80;3.67;;;;;;;7.90;92.83;97645.28;6193961;28;20240;-86
2023/05/29 05:30:56;;;;;;;5.77;3.90;;;;;;;8.84;92.72;97769.53;6208766;28;20247;-84
2023/05/29 05:33:59;;;;;;;5.47;3.50;;;;;;;9.34;91.97;97804.47;6227464;28;20226;-85
2023/05/29 05:37:02;;;;;;;3.97;3.33;;;;;;;9.86;91.96;97863.13;6212220;28;20241;-84
2023/05/29 05:40:06;;;;;;;6.60;3.63;;;;;;;9.71;91.76;97831.66;6227094;28;20228;-88
2023/05/29 05:43:14;;;;;;;4.97;3.77;;;;;;;8.88;91.48;97688.34;6215075;28;20219;-87
2023/05/29 05:46:35;;;;;;;4.37;3.23;;;;;;;9.56;91.20;97760.31;6221633;28;20228;-86
2023/05/29 05:49:38;;;;;;;5.80;3.20;;;;;;;10.05;90.67;97805.25;6206845;28;20229;-86
2023/05/29 05:52:41;;;;;;;4.60;3.30;;;;;;;9.16;89.60;97656.56;6217275;28;20227;-86
2023/05/29 05:55:46;;;;;;;5.40;3.27;;;;;;;9.09;86.38;97589.44;6206218;28;20267;-86
2023/05/29 05:58:50;;;;;;;6.70;3.20;;;;;;;10.61;85.23;97794.88;6231098;28;20242;-86
2023/05/29 06:01:56;;;;;;;5.30;2.73;;;;;;;9.78;84.38;97610.72;6211251;28;20223;-86
2023/05/29 06:05:00;;;;;;;4.83;3.10;;;;;;;9.92;84.63;97621.88;6215456;28;20703;-86
2023/05/29 06:08:03;;;;;;;26.80;21.60;;;;;;;10.07;83.25;97616.81;6218792;28;20231;-87
2023/05/29 06:11:05;;;;;;;53.03;42.13;;;;;;;10.41;83.65;97638.19;6197959;28;20322;-86
2023/05/29 06:14:09;;;;;;;26.80;20.67;;;;;;;12.19;83.27;97886.22;6227776;28;20751;-83
2023/05/29 06:17:11;;;;;;;16.37;12.73;;;;;;;12.20;82.59;97857.66;6205747;28;20238;-84
2023/05/29 06:20:14;;;;;;;22.03;15.93;;;;;;;12.43;81.87;97865.44;6218190;28;20223;-83
2023/05/29 06:23:17;;;;;;;29.07;21.00;;;;;;;12.85;80.37;97875.50;6211039;28;20220;-84
2023/05/29 06:26:19;;;;;;;17.47;13.63;;;;;;;12.66;78.41;97829.63;6231568;28;20224;-84
2023/05/29 06:29:32;;;;;;;12.57;9.73;;;;;;;12.82;77.52;97787.81;6195561;28;20242;-84
2023/05/29 06:32:42;;;;;;;8.37;5.00;;;;;;;13.30;75.39;97836.91;6213664;28;20281;-84
2023/05/29 06:35:45;;;;;;;5.83;3.20;;;;;;;13.65;74.57;97855.13;6215724;28;20240;-85
2023/05/29 06:38:48;;;;;;;4.13;2.80;;;;;;;13.85;72.81;97870.53;6227710;28;20251;-84
2023/05/29 06:41:51;;;;;;;5.20;3.73;;;;;;;14.32;64.30;97891.16;6224299;28;20228;-84
2023/05/29 06:44:53;;;;;;;5.67;3.50;;;;;;;14.29;64.26;97844.25;6202810;28;20225;-85
2023/05/29 06:47:57;;;;;;;3.30;2.60;;;;;;;13.58;58.96;97689.38;6191337;28;20231;-84
2023/05/29 06:51:00;;;;;;;3.37;2.60;;;;;;;15.09;61.44;97871.59;6181724;28;20287;-84
2023/05/29 06:54:15;;;;;;;5.17;2.73;;;;;;;15.42;60.72;97902.50;6204946;28;20224;-84
2023/05/29 06:57:20;;;;;;;5.23;2.57;;;;;;;15.21;59.00;97839.13;6217955;28;20274;-84
2023/05/29 07:00:22;;;;;;;3.70;2.80;;;;;;;15.60;56.00;97842.06;6234304;28;20240;-84
2023/05/29 07:03:36;;;;;;;3.83;2.57;;;;;;;15.62;53.89;97813.09;6219939;28;20231;-87
2023/05/29 07:06:41;;;;;;;5.83;2.70;;;;;;;15.98;54.99;97864.88;6228284;28;20240;-87
2023/05/29 07:09:44;;;;;;;4.73;3.40;;;;;;;15.90;57.29;97837.75;6231803;28;20228;-86
2023/05/29 07:12:47;;;;;;;4.03;2.70;;;;;;;16.38;59.24;97906.19;6229412;28;20243;-86
2023/05/29 07:15:50;;;;;;;4.73;3.03;;;;;;;15.95;60.79;97827.00;6212271;28;20720;-86
2023/05/29 07:18:58;;;;;;;5.00;2.93;;;;;;;15.74;52.33;97745.66;6220316;28;20246;-86
2023/05/29 07:22:04;;;;;;;4.10;2.83;;;;;;;15.82;52.94;97715.56;6215427;28;20731;-87
2023/05/29 07:25:07;;;;;;;3.73;2.57;;;;;;;17.00;52.59;97875.28;6214621;28;20355;-87
2023/05/29 07:28:10;;;;;;;6.03;3.10;;;;;;;17.03;52.71;97872.00;6224219;28;20282;-88
2023/05/29 07:31:24;;;;;;;7.67;2.97;;;;;;;15.76;53.33;97670.97;6218278;28;20251;-89
2023/05/29 07:34:27;;;;;;;4.50;3.10;;;;;;;16.83;52.53;97830.97;6215419;28;20247;-88
2023/05/29 07:37:31;;;;;;;5.37;3.00;;;;;;;16.72;48.96;97777.22;6213378;28;20227;-89
2023/05/29 07:40:34;;;;;;;5.27;2.47;;;;;;;17.62;50.08;97893.69;6206479;28;20225;-85
2023/05/29 07:44:03;;;;;;;7.03;2.70;;;;;;;17.37;50.27;97830.06;6216415;28;20341;-90
2023/05/29 07:47:06;;;;;;;5.30;2.87;;;;;;;17.36;52.44;97826.56;6215159;28;20750;-89
2023/05/29 07:50:14;;;;;;;7.43;2.57;;;;;;;18.01;49.35;97921.41;6213808;28;20236;-84
2023/05/29 07:53:17;;;;;;;5.57;2.80;;;;;;;17.79;47.65;97880.66;6211814;28;20251;-88
2023/05/29 07:56:21;;;;;;;5.07;3.33;;;;;;;17.82;47.56;97908.91;6212397;28;20262;-91
2023/05/29 07:59:23;;;;;;;5.07;2.70;;;;;;;17.69;48.34;97886.91;6209569;28;20236;-87
2023/05/29 08:02:26;;;;;;;5.43;2.90;;;;;;;17.71;50.63;97881.22;6215920;28;20235;-86
2023/05/29 08:05:55;;;;;;;4.87;3.00;;;;;;;17.71;48.00;97857.78;6217025;28;20239;-87
2023/05/29 08:08:58;;;;;;;6.77;3.70;;;;;;;17.86;46.32;97885.69;6204667;28;20232;-93
2023/05/29 08:12:03;;;;;;;3.27;2.70;;;;;;;17.82;47.28;97888.16;6197539;28;20566;-88
2023/05/29 08:15:07;;;;;;;5.63;2.80;;;;;;;17.47;47.75;97849.63;6175141;28;20215;-88
2023/05/29 08:18:12;;;;;;;5.93;3.30;;;;;;;18.05;47.97;97905.47;6199863;28;20223;-88
2023/05/29 08:21:14;;;;;;;5.00;2.80;;;;;;;17.83;49.95;97878.16;6209226;28;20726;-88
2023/05/29 08:24:17;;;;;;;6.13;2.80;;;;;;;18.13;48.00;97893.25;6195367;28;20262;-89
2023/05/29 08:27:19;;;;;;;6.27;3.00;;;;;;;17.34;47.13;97756.03;6211044;28;20223;-88
2023/05/29 08:30:24;;;;;;;4.27;2.67;;;;;;;18.05;49.86;97840.75;6211332;28;20251;-89
2023/05/29 08:33:27;;;;;;;6.87;2.67;;;;;;;18.63;46.73;97900.00;6192891;28;20733;-88
2023/05/29 08:36:31;;;;;;;7.17;3.50;;;;;;;18.52;47.33;97911.97;6201316;28;20233;-90
2023/05/29 08:39:34;;;;;;;4.83;2.43;;;;;;;18.33;46.95;97898.44;6214437;28;20227;-90
2023/05/29 08:42:53;;;;;;;4.07;2.37;;;;;;;18.30;45.91;97909.78;6179979;28;20216;-90
2023/05/29 08:46:00;;;;;;;3.43;2.87;;;;;;;18.50;45.78;97895.28;6187839;28;20717;-91
2023/05/29 08:49:04;;;;;;;3.93;2.43;;;;;;;18.24;44.72;97848.91;6173387;28;20240;-90
2023/05/29 08:52:29;;;;;;;6.63;2.53;;;;;;;18.56;47.53;97930.00;6217161;28;20227;-88
2023/05/29 08:55:36;;;;;;;2.90;2.37;;;;;;;18.40;45.82;97869.22;6207693;28;20715;-89
2023/05/29 08:58:39;;;;;;;6.07;2.63;;;;;;;18.68;46.62;97880.22;6214140;28;20362;-91
2023/05/29 09:01:45;;;;;;;5.67;2.47;;;;;;;18.56;44.86;97877.94;6214597;28;20225;-91
2023/05/29 09:04:56;;;;;;;5.53;2.37;;;;;;;18.96;47.72;97943.31;6210693;28;20319;-91
2023/05/29 09:07:59;;;;;;;3.90;2.50;;;;;;;18.97;42.27;97923.34;6189289;28;20234;-92
2023/05/29 09:11:02;;;;;;;4.17;2.60;;;;;;;18.59;44.12;97877.38;6214222;28;20229;-90
2023/05/29 09:14:04;;;;;;;4.20;2.50;;;;;;;18.87;43.19;97900.00;6204686;28;20255;-91
2023/05/29 09:17:09;;;;;;;4.43;2.93;;;;;;;18.85;43.74;97902.16;6210934;28;20229;-91
2023/05/29 09:20:17;;;;;;;6.50;2.60;;;;;;;19.21;44.80;97932.19;6179220;28;20232;-91
2023/05/29 09:23:20;;;;;;;4.03;2.63;;;;;;;18.89;43.11;97857.28;6208011;28;20635;-92
2023/05/29 09:26:38;;;;;;;5.57;2.70;;;;;;;17.17;41.78;97589.53;6205784;28;20235;-87
2023/05/29 09:30:01;;;;;;;5.67;2.87;;;;;;;19.30;41.11;97941.22;6208574;28;20394;-91
2023/05/29 09:33:05;;;;;;;5.50;2.63;;;;;;;19.05;40.95;97860.56;6224762;28;20228;-93
2023/05/29 09:36:20;;;;;;;4.70;2.77;;;;;;;18.94;41.46;97867.22;6208726;28;20220;-89
2023/05/29 09:39:23;;;;;;;6.77;2.77;;;;;;;18.64;41.65;97798.25;6204276;28;20237;-91
2023/05/29 09:42:36;;;;;;;5.33;2.80;;;;;;;19.62;40.59;97926.22;6198537;28;20351;-91
2023/05/29 09:46:15;;;;;;;4.77;2.47;;;;;;;19.23;40.20;97875.19;6225281;28;20251;-92
2023/05/29 09:49:23;;;;;;;3.53;2.53;;;;;;;19.49;40.20;97894.50;6187196;28;20240;-92
2023/05/29 09:52:30;;;;;;;3.93;2.73;;;;;;;19.98;39.39;97945.34;6207421;28;20240;-92
2023/05/29 09:55:36;;;;;;;3.67;2.73;;;;;;;19.34;38.71;97876.63;6188854;28;20231;-93
2023/05/29 09:58:45;;;;;;;7.53;2.70;;;;;;;19.42;39.57;97888.69;6192190;28;20239;-93
2023/05/29 10:01:49;;;;;;;5.20;3.00;;;;;;;19.67;38.28;97893.69;6206052;28;20258;-90
2023/05/29 10:04:52;;;;;;;4.50;2.53;;;;;;;19.53;36.74;97888.22;6204547;28;20224;-92
2023/05/29 10:07:55;;;;;;;6.33;2.70;;;;;;;19.42;38.21;97894.88;6211901;28;20232;-89
2023/05/29 10:11:08;;;;;;;4.63;2.53;;;;;;;19.34;41.44;97877.44;6203175;28;20235;-89
2023/05/29 10:14:17;;;;;;;4.80;2.57;;;;;;;19.33;40.42;97862.31;6211829;28;20250;-88
2023/05/29 10:17:25;;;;;;;4.23;2.50;;;;;;;19.97;39.81;97945.66;6231148;28;20225;-90
2023/05/29 10:20:28;;;;;;;4.70;2.43;;;;;;;19.24;41.20;97857.88;6225381;28;20244;-89
2023/05/29 10:23:37;;;;;;;3.40;2.27;;;;;;;19.94;40.28;97940.84;6228794;28;20298;-86
2023/05/29 10:26:47;;;;;;;5.53;2.60;;;;;;;19.22;40.86;97876.28;6247593;28;20252;-90
2023/05/29 10:30:08;;;;;;;5.27;2.50;;;;;;;19.73;43.59;97916.03;6259016;28;20236;-88
2023/05/29 10:33:34;;;;;;;5.60;2.70;;;;;;;19.96;40.89;97925.94;6246334;28;20239;-89
2023/05/29 10:36:49;;;;;;;5.37;2.77;;;;;;;19.42;41.05;97902.97;6242800;28;20227;-89
2023/05/29 10:39:52;;;;;;;4.77;2.60;;;;;;;18.45;42.95;97752.38;6246136;28;20238;-88
2023/05/29 10:42:58;;;;;;;4.83;2.73;;;;;;;17.86;43.29;97699.75;6255359;28;20246;-89
2023/05/29 10:46:02;;;;;;;2.40;2.03;;;;;;;18.16;44.29;97779.44;6250728;28;20231;-90
2023/05/29 10:49:18;;;;;;;4.93;2.57;;;;;;;19.20;43.26;97922.47;6242879;28;20240;-88
2023/05/29 10:52:21;;;;;;;4.80;2.87;;;;;;;19.02;41.89;97901.69;6229091;28;20217;-89
2023/05/29 10:55:34;;;;;;;3.73;2.57;;;;;;;18.08;42.79;97721.56;6262280;28;20232;-91
2023/05/29 10:58:37;;;;;;;4.00;2.60;;;;;;;19.63;43.07;97924.31;6212843;28;20245;-90
2023/05/29 11:01:40;;;;;;;4.77;2.60;;;;;;;19.67;42.91;97891.00;6221454;28;20224;-90
2023/05/29 11:04:43;;;;;;;4.27;2.70;;;;;;;19.68;44.90;97853.97;6215475;28;20228;-91
2023/05/29 11:07:56;;;;;;;4.17;2.73;;;;;;;19.47;42.57;97831.84;6223300;28;20640;-89
2023/05/29 11:10:59;;;;;;;5.27;2.60;;;;;;;18.87;40.33;97702.94;6214629;28;20302;-86
2023/05/29 11:14:04;;;;;;;6.43;3.27;;;;;;;20.11;40.81;97884.28;6215037;28;20232;-88
2023/05/29 11:17:50;;;;;;;4.90;2.87;;;;;;;20.05;38.92;97870.06;6215998;28;20323;-88
2023/05/29 11:20:58;;;;;;;4.50;2.90;;;;;;;18.85;39.41;97661.91;6215098;28;20213;-86
2023/05/29 11:24:03;;;;;;;4.17;2.80;;;;;;;20.52;39.39;97916.00;6220639;28;20332;-88
2023/05/29 11:27:10;;;;;;;5.70;2.70;;;;;;;20.43;38.96;97896.13;6213424;28;20755;-87
2023/05/29 11:30:15;;;;;;;7.10;3.03;;;;;;;20.77;37.76;97898.47;6208779;28;20212;-88
2023/05/29 11:33:31;;;;;;;4.77;2.70;;;;;;;20.48;38.17;97863.59;6214206;28;20291;-89
2023/05/29 11:36:34;;;;;;;4.67;2.70;;;;;;;20.42;40.11;97852.03;6229698;28;20246;-87
2023/05/29 11:39:43;;;;;;;6.43;2.50;;;;;;;20.63;38.80;97857.84;6204567;28;20270;-85
2023/05/29 11:43:10;;;;;;;5.67;2.77;;;;;;;20.61;41.38;97866.28;6209292;28;20229;-88
2023/05/29 11:46:30;;;;;;;4.73;3.07;;;;;;;21.02;37.40;97911.44;6205448;28;20241;-85
2023/05/29 11:49:36;;;;;;;4.50;2.80;;;;;;;20.83;36.61;97860.13;6209978;28;20717;-86
2023/05/29 11:52:46;;;;;;;5.93;2.67;;;;;;;20.95;36.47;97875.06;6216583;28;20740;-86
2023/05/29 11:55:48;;;;;;;3.10;2.70;;;;;;;20.79;34.24;97837.50;6208430;28;20235;-87
2023/05/29 11:58:56;;;;;;;4.53;2.97;;;;;;;21.23;33.79;97908.28;6229307;28;20243;-85
2023/05/29 12:02:03;;;;;;;3.37;2.87;;;;;;;21.16;34.32;97897.88;6217492;28;20618;-84
2023/05/29 12:05:08;;;;;;;3.87;2.87;;;;;;;20.86;33.77;97831.66;6203632;28;20224;-85
2023/05/29 12:08:12;;;;;;;7.03;2.80;;;;;;;21.32;33.38;97884.81;6195243;28;20801;-87
2023/05/29 12:11:23;;;;;;;3.43;2.50;;;;;;;21.20;34.40;97860.94;6212223;28;20236;-85
2023/05/29 12:14:26;;;;;;;6.10;2.90;;;;;;;21.51;34.49;97876.50;6213601;28;20342;-84
2023/05/29 12:17:30;;;;;;;4.40;2.90;;;;;;;21.27;35.33;97823.38;6196195;28;20247;-86
2023/05/29 12:20:33;;;;;;;2.97;2.37;;;;;;;21.53;33.71;97833.66;6215924;28;20246;-86
2023/05/29 12:23:38;;;;;;;3.63;2.43;;;;;;;20.21;35.92;97640.63;6231693;28;20224;-88
2023/05/29 12:26:42;;;;;;;3.40;2.60;;;;;;;21.73;35.73;97873.00;6205518;28;20234;-87
2023/05/29 12:29:44;;;;;;;3.97;3.00;;;;;;;21.50;35.12;97823.41;6229763;28;20378;-85
2023/05/29 12:32:52;;;;;;;3.50;2.77;;;;;;;21.97;35.01;97878.91;6228849;28;20228;-86
2023/05/29 12:36:09;;;;;;;3.97;2.70;;;;;;;21.99;33.05;97860.38;6207948;28;20235;-86
2023/05/29 12:39:11;;;;;;;5.93;2.83;;;;;;;21.48;31.63;97810.19;6223331;28;20240;-85
2023/05/29 12:42:16;;;;;;;4.80;2.67;;;;;;;21.90;32.64;97878.53;6226581;28;20254;-85
2023/05/29 12:45:19;;;;;;;4.23;2.77;;;;;;;21.54;33.16;97816.28;6213942;28;20794;-86
2023/05/29 12:48:27;;;;;;;4.07;2.97;;;;;;;21.40;35.83;97829.09;6208065;28;20608;-86
2023/05/29 12:51:29;;;;;;;6.63;3.13;;;;;;;21.83;32.08;97870.03;6208982;28;20262;-87
2023/05/29 12:54:33;;;;;;;3.67;2.70;;;;;;;21.64;32.98;97846.63;6212147;28;20232;-84
2023/05/29 12:57:35;;;;;;;5.03;2.87;;;;;;;21.86;32.87;97875.63;6227959;28;20311;-82
2023/05/29 13:00:39;;;;;;;4.60;2.77;;;;;;;21.57;32.45;97812.91;6204790;28;20748;-85
2023/05/29 13:04:03;;;;;;;5.20;2.87;;;;;;;21.97;32.80;97872.63;6209540;28;20243;-87
2023/05/29 13:07:08;;;;;;;5.87;2.80;;;;;;;20.34;33.71;97620.88;6212671;28;20734;-95
2023/05/29 13:10:15;;;;;;;3.10;2.80;;;;;;;19.27;32.71;97452.16;6197058;28;20238;-92
2023/05/29 13:13:18;;;;;;;5.23;2.83;;;;;;;21.23;32.48;97746.53;6231471;28;20232;-90
2023/05/29 13:16:22;;;;;;;5.30;3.03;;;;;;;21.26;33.74;97775.72;6240606;28;20289;-90
2023/05/29 13:19:25;;;;;;;5.43;2.67;;;;;;;21.75;32.59;97866.16;6211599;28;20286;-87
2023/05/29 13:22:31;;;;;;;4.30;3.07;;;;;;;21.58;32.91;97839.75;6211035;28;20223;-86
2023/05/29 13:25:33;;;;;;;5.43;2.87;;;;;;;21.28;33.47;97789.78;6227927;28;20883;-88
2023/05/29 13:28:35;;;;;;;4.87;2.80;;;;;;;21.51;33.85;97820.38;6211919;28;20615;-86
2023/05/29 13:31:38;;;;;;;4.47;2.80;;;;;;;21.52;32.58;97794.06;6212718;28;20244;-86
2023/05/29 13:34:42;;;;;;;3.97;2.87;;;;;;;21.87;32.36;97858.25;6220291;28;20319;-87
2023/05/29 13:37:45;;;;;;;6.03;2.90;;;;;;;21.48;32.03;97804.75;6229992;28;20243;-87
2023/05/29 13:40:48;;;;;;;3.67;2.43;;;;;;;21.70;34.01;97841.06;6197935;28;20697;-88
2023/05/29 13:43:51;;;;;;;4.90;2.90;;;;;;;21.07;35.43;97748.00;6225222;28;20225;-86
2023/05/29 13:46:55;;;;;;;4.13;2.83;;;;;;;21.73;32.68;97830.41;6228806;28;20244;-86
2023/05/29 13:49:58;;;;;;;3.83;2.70;;;;;;;21.61;32.46;97792.22;6220126;28;20216;-87
2023/05/29 13:53:01;;;;;;;5.63;3.27;;;;;;;21.82;32.58;97816.88;6204169;28;20223;-87
2023/05/29 13:56:03;;;;;;;3.70;2.67;;;;;;;21.71;31.65;97808.22;6193101;28;20221;-87
2023/05/29 13:59:06;;;;;;;3.83;2.60;;;;;;;21.70;34.16;97808.53;6205071;28;20239;-87
2023/05/29 14:02:08;;;;;;;3.63;2.93;;;;;;;21.16;32.33;97767.03;6214928;28;20232;-87
2023/05/29 14:05:11;;;;;;;4.53;2.80;;;;;;;21.37;32.10;97779.00;6203854;28;20314;-87
2023/05/29 14:08:13;;;;;;;3.00;2.70;;;;;;;21.55;29.51;97778.00;6212082;28;20255;-91
2023/05/29 14:11:17;;;;;;;3.90;2.70;;;;;;;19.48;29.62;97506.53;6224097;28;20239;-91
2023/05/29 14:14:20;;;;;;;3.20;2.60;;;;;;;21.86;31.15;97848.50;6226201;28;20314;-91
2023/05/29 14:17:23;;;;;;;5.93;2.90;;;;;;;19.88;34.51;97566.22;6212464;28;20239;-91
2023/05/29 14:20:25;;;;;;;3.40;2.70;;;;;;;21.47;29.96;97750.84;6226448;28;20600;-93
2023/05/29 14:23:28;;;;;;;5.27;2.97;;;;;;;21.20;30.08;97744.44;6214552;28;20219;-90
2023/05/29 14:26:30;;;;;;;3.07;2.50;;;;;;;19.60;29.65;97525.72;6232748;28;20729;-90
2023/05/29 14:29:33;;;;;;;4.20;2.97;;;;;;;19.83;30.22;97545.50;6211897;28;20288;-91
2023/05/29 14:32:36;;;;;;;4.73;2.90;;;;;;;19.68;31.27;97533.13;6218805;28;20778;-91
2023/05/29 14:35:38;;;;;;;3.30;2.63;;;;;;;21.11;31.21;97724.63;6217531;28;20244;-91
2023/05/29 14:38:42;;;;;;;3.00;2.60;;;;;;;20.33;34.19;97640.09;6219663;28;20704;-91